Time,TemperatureF,DewpointF,PressureIn,WindDirection,WindDirectionDegrees,WindSpeedMPH,WindSpeedGustMPH,Humidity,HourlyPrecipIn,Conditions,Clouds,dailyrainin,SoftwareType,DateUTC
2013-06-24 00:02:00,65.0,64.0,30.24,SSW,197,0.0,0.0,95,0.02,,,0.02,,2013-06-24 04:02:00,
2013-06-24 00:12:00,65.0,64.0,30.24,SSW,197,0.0,0.0,95,0.02,,,0.02,,2013-06-24 04:12:00,
2013-06-24 00:22:00,65.0,64.0,30.24,SSW,197,0.0,0.0,95,0.01,,,0.02,,2013-06-24 04:22:00,
2013-06-24 00:33:00,65.0,64.0,30.24,SSW,197,0.0,0.0,95,0.01,,,0.02,,2013-06-24 04:33:00,
2013-06-24 00:43:00,65.0,64.0,30.24,SSW,197,0.0,0.0,95,0.01,,,0.02,,2013-06-24 04:43:00,
2013-06-24 00:53:00,65.0,64.0,30.23,SSW,197,0.0,0.0,95,0.00,,,0.02,,2013-06-24 04:53:00,
2013-06-24 01:02:00,65.0,64.0,30.24,SSW,197,0.0,0.0,96,0.00,,,0.02,,2013-06-24 05:02:00,
2013-06-24 01:12:00,65.0,64.0,30.24,SSW,197,0.0,0.0,96,0.00,,,0.02,,2013-06-24 05:12:00,
2013-06-24 01:22:00,65.0,64.0,30.24,SSW,197,0.0,0.0,96,0.00,,,0.02,,2013-06-24 05:22:00,
2013-06-24 01:46:00,64.0,63.0,30.23,SSW,197,0.0,1.0,96,0.00,,,0.02,,2013-06-24 05:46:00,
2013-06-24 02:08:00,64.0,63.0,30.22,SSW,197,0.0,1.0,96,0.00,,,0.02,,2013-06-24 06:08:00,
2013-06-24 02:14:00,64.0,63.0,30.22,SSW,197,0.0,1.0,96,0.00,,,0.02,,2013-06-24 06:14:00,
2013-06-24 02:24:00,64.0,63.0,30.22,SSW,197,0.0,0.0,96,0.00,,,0.02,,2013-06-24 06:24:00,
2013-06-24 02:37:00,64.0,63.0,30.22,SSW,197,0.0,0.0,96,0.00,,,0.02,,2013-06-24 06:37:00,
2013-06-24 02:45:00,64.0,63.0,30.22,SSW,197,0.0,0.0,96,0.00,,,0.02,,2013-06-24 06:45:00,
2013-06-24 02:57:00,64.0,63.0,30.23,SSW,197,0.0,0.0,96,0.00,,,0.02,,2013-06-24 06:57:00,
2013-06-24 03:05:00,64.0,63.0,30.22,SSW,197,0.0,0.0,96,0.00,,,0.02,,2013-06-24 07:05:00,
2013-06-24 03:37:00,64.0,63.0,30.22,SSW,197,0.0,0.0,96,0.00,,,0.02,,2013-06-24 07:37:00,
2013-06-24 03:47:00,64.0,63.0,30.22,SSW,197,0.0,0.0,96,0.00,,,0.02,,2013-06-24 07:47:00,
2013-06-24 04:04:00,64.0,63.0,30.22,SSW,197,0.0,1.0,96,0.00,,,0.02,,2013-06-24 08:04:00,
2013-06-24 04:14:00,64.0,63.0,30.22,SSW,197,0.0,1.0,96,0.00,,,0.02,,2013-06-24 08:14:00,
2013-06-24 04:26:00,64.0,63.0,30.22,SSW,197,0.0,0.0,96,0.00,,,0.02,,2013-06-24 08:26:00,
2013-06-24 04:35:00,64.0,63.0,30.23,SSW,197,0.0,0.0,96,0.00,,,0.02,,2013-06-24 08:35:00,
2013-06-24 04:46:00,64.0,63.0,30.23,SSW,197,0.0,0.0,96,0.00,,,0.02,,2013-06-24 08:46:00,
2013-06-24 04:55:00,64.0,63.0,30.22,SSW,197,0.0,0.0,96,0.00,,,0.02,,2013-06-24 08:55:00,
2013-06-24 05:06:00,63.0,62.0,30.22,SSW,197,0.0,0.0,96,0.00,,,0.02,,2013-06-24 09:06:00,
2013-06-24 05:15:00,63.0,62.0,30.22,SSW,197,0.0,0.0,96,0.00,,,0.02,,2013-06-24 09:15:00,
2013-06-24 05:26:00,63.0,62.0,30.22,SSW,197,0.0,0.0,96,0.00,,,0.02,,2013-06-24 09:26:00,
2013-06-24 05:37:00,63.0,62.0,30.22,SSW,197,0.0,0.0,96,0.00,,,0.02,,2013-06-24 09:37:00,
2013-06-24 05:47:00,63.0,62.0,30.22,SSW,197,0.0,0.0,96,0.00,,,0.02,,2013-06-24 09:47:00,
2013-06-24 06:00:00,63.0,62.0,30.23,SSW,197,0.0,0.0,96,0.00,,,0.02,,2013-06-24 10:00:00,
2013-06-24 06:14:00,63.0,62.0,30.23,SSW,197,0.0,0.0,97,0.00,,,0.02,,2013-06-24 10:14:00,
2013-06-24 06:24:00,63.0,62.0,30.23,SSW,197,0.0,0.0,97,0.00,,,0.02,,2013-06-24 10:24:00,
2013-06-24 06:37:00,63.0,62.0,30.23,SSW,197,0.0,0.0,97,0.00,,,0.02,,2013-06-24 10:37:00,
2013-06-24 06:50:00,63.0,62.0,30.23,SSW,197,0.0,0.0,97,0.00,,,0.02,,2013-06-24 10:50:00,
2013-06-24 07:03:00,63.0,62.0,30.23,SSW,197,0.0,0.0,97,0.00,,,0.02,,2013-06-24 11:03:00,
2013-06-24 07:15:00,63.0,62.0,30.23,SSW,197,0.0,0.0,97,0.00,,,0.02,,2013-06-24 11:15:00,
2013-06-24 07:29:00,63.0,62.0,30.24,SSW,197,0.0,0.0,97,0.00,,,0.02,,2013-06-24 11:29:00,
2013-06-24 07:34:00,63.0,62.0,30.24,SSW,197,0.0,0.0,97,0.00,,,0.02,,2013-06-24 11:34:00,
2013-06-24 07:47:00,63.0,62.0,30.24,SSW,197,0.0,0.0,97,0.00,,,0.02,,2013-06-24 11:47:00,
2013-06-24 07:58:00,63.0,62.0,30.24,SSW,197,0.0,0.0,97,0.00,,,0.02,,2013-06-24 11:58:00,
2013-06-24 08:16:00,63.0,62.0,30.24,SSW,197,0.0,0.0,97,0.00,,,0.02,,2013-06-24 12:16:00,
2013-06-24 08:36:00,64.0,63.0,30.25,SSW,197,0.0,0.0,97,0.00,,,0.02,,2013-06-24 12:36:00,
2013-06-24 08:48:00,64.0,63.0,30.25,SSW,197,0.0,0.0,97,0.00,,,0.02,,2013-06-24 12:48:00,
2013-06-24 08:55:00,64.0,63.0,30.25,SSW,197,0.0,0.0,97,0.00,,,0.02,,2013-06-24 12:55:00,
2013-06-24 09:06:00,64.0,63.0,30.25,SSW,197,0.0,0.0,97,0.00,,,0.02,,2013-06-24 13:06:00,
2013-06-24 09:36:00,64.0,63.0,30.25,SSW,197,0.0,0.0,97,0.00,,,0.02,,2013-06-24 13:36:00,
2013-06-24 10:16:00,67.0,66.0,30.27,SE,136,0.0,1.0,96,0.00,,,0.02,,2013-06-24 14:16:00,
2013-06-24 10:24:00,68.0,67.0,30.27,SE,136,0.0,1.0,95,0.00,,,0.02,,2013-06-24 14:24:00,
2013-06-24 10:37:00,69.0,67.0,30.26,East,86,0.0,1.0,94,0.00,,,0.02,,2013-06-24 14:37:00,
2013-06-24 10:45:00,69.0,67.0,30.26,East,86,0.0,1.0,94,0.00,,,0.02,,2013-06-24 14:45:00,
2013-06-24 10:59:00,71.0,69.0,30.26,ENE,74,0.0,2.0,93,0.00,,,0.02,,2013-06-24 14:59:00,
2013-06-24 11:05:00,71.0,69.0,30.26,ENE,74,0.0,2.0,93,0.00,,,0.02,,2013-06-24 15:05:00,
2013-06-24 11:14:00,72.0,69.0,30.26,ENE,61,0.0,3.0,90,0.00,,,0.02,,2013-06-24 15:14:00,
2013-06-24 11:27:00,72.0,67.0,30.26,SE,136,0.0,2.0,84,0.00,,,0.02,,2013-06-24 15:27:00,
2013-06-24 11:57:00,75.0,69.0,30.24,East,79,0.0,3.0,83,0.00,,,0.02,,2013-06-24 15:57:00,
2013-06-24 12:04:00,75.0,69.0,30.24,East,79,0.0,3.0,83,0.00,,,0.02,,2013-06-24 16:04:00,
2013-06-24 12:15:00,76.0,70.0,30.24,SE,139,0.0,0.0,81,0.00,,,0.02,,2013-06-24 16:15:00,
2013-06-24 12:44:00,76.0,69.0,30.24,ESE,112,0.0,1.0,80,0.00,,,0.02,,2013-06-24 16:44:00,
2013-06-24 12:56:00,76.0,69.0,30.24,ESE,112,0.0,1.0,78,0.00,,,0.02,,2013-06-24 16:56:00,
2013-06-24 13:05:00,76.0,69.0,30.24,ESE,112,0.0,1.0,78,0.00,,,0.02,,2013-06-24 17:05:00,
2013-06-24 13:15:00,77.0,70.0,30.23,ESE,113,0.0,1.0,79,0.00,,,0.02,,2013-06-24 17:15:00,
2013-06-24 13:25:00,77.0,67.0,30.23,South,183,0.0,3.0,71,0.00,,,0.02,,2013-06-24 17:25:00,
2013-06-24 13:35:00,77.0,67.0,30.23,South,183,0.0,3.0,71,0.00,,,0.02,,2013-06-24 17:35:00,
2013-06-24 13:47:00,77.0,67.0,30.22,SSW,200,0.0,6.0,71,0.00,,,0.02,,2013-06-24 17:47:00,
2013-06-24 13:57:00,77.0,68.0,30.22,SSW,203,0.0,2.0,74,0.00,,,0.02,,2013-06-24 17:57:00,
2013-06-24 14:25:00,77.0,69.0,30.20,South,181,0.0,3.0,76,0.00,,,0.02,,2013-06-24 18:25:00,
2013-06-24 14:46:00,76.0,67.0,30.19,South,180,1.0,5.0,74,0.00,,,0.02,,2013-06-24 18:46:00,
2013-06-24 14:55:00,78.0,67.0,30.18,SW,229,1.0,5.0,70,0.00,,,0.02,,2013-06-24 18:55:00,
2013-06-24 15:06:00,78.0,67.0,30.18,SW,229,1.0,5.0,70,0.00,,,0.02,,2013-06-24 19:06:00,
2013-06-24 15:13:00,79.0,68.0,30.18,NW,309,0.0,2.0,69,0.00,,,0.02,,2013-06-24 19:13:00,
2013-06-24 15:25:00,79.0,68.0,30.17,WSW,249,0.0,3.0,70,0.00,,,0.02,,2013-06-24 19:25:00,
2013-06-24 15:37:00,79.0,68.0,30.17,WSW,249,0.0,3.0,70,0.00,,,0.02,,2013-06-24 19:37:00,
2013-06-24 15:45:00,80.0,69.0,30.17,South,184,0.0,1.0,69,0.00,,,0.02,,2013-06-24 19:45:00,
2013-06-24 15:57:00,81.0,67.0,30.16,West,266,0.0,3.0,62,0.00,,,0.02,,2013-06-24 19:57:00,
2013-06-24 16:12:00,81.0,67.0,30.16,SW,220,0.0,3.0,63,0.00,,,0.02,,2013-06-24 20:12:00,
2013-06-24 16:34:00,80.0,68.0,30.16,SW,236,0.0,2.0,68,0.00,,,0.02,,2013-06-24 20:34:00,
2013-06-24 16:45:00,80.0,68.0,30.15,SW,219,0.0,4.0,66,0.00,,,0.02,,2013-06-24 20:45:00,
2013-06-24 16:56:00,80.0,68.0,30.15,SSW,192,1.0,5.0,66,0.00,,,0.02,,2013-06-24 20:56:00,
2013-06-24 17:04:00,80.0,68.0,30.15,SSW,192,1.0,5.0,66,0.00,,,0.02,,2013-06-24 21:04:00,
2013-06-24 17:13:00,79.0,65.0,30.15,WNW,295,0.0,4.0,63,0.00,,,0.02,,2013-06-24 21:13:00,
2013-06-24 17:37:00,79.0,67.0,30.15,SSE,160,0.0,4.0,67,0.00,,,0.02,,2013-06-24 21:37:00,
2013-06-24 17:46:00,79.0,67.0,30.15,WNW,290,0.0,2.0,66,0.00,,,0.02,,2013-06-24 21:46:00,
2013-06-24 17:55:00,78.0,65.0,30.15,SSW,201,0.0,3.0,64,0.00,,,0.02,,2013-06-24 21:55:00,
2013-06-24 18:15:00,78.0,67.0,30.14,SSW,202,0.0,2.0,68,0.00,,,0.02,,2013-06-24 22:15:00,
2013-06-24 18:36:00,78.0,67.0,30.13,SSE,163,1.0,6.0,69,0.00,,,0.02,,2013-06-24 22:36:00,
2013-06-24 18:47:00,79.0,68.0,30.13,SSE,168,0.0,6.0,70,0.00,,,0.02,,2013-06-24 22:47:00,
2013-06-24 18:56:00,78.0,68.0,30.13,SSE,165,0.0,6.0,72,0.00,,,0.02,,2013-06-24 22:56:00,
2013-06-24 19:05:00,78.0,69.0,30.13,SSE,163,0.0,2.0,74,0.00,,,0.02,,2013-06-24 23:05:00,
2013-06-24 19:14:00,78.0,69.0,30.13,SSE,163,0.0,2.0,74,0.00,,,0.02,,2013-06-24 23:14:00,
2013-06-24 19:27:00,77.0,67.0,30.13,SE,136,0.0,2.0,72,0.00,,,0.02,,2013-06-24 23:27:00,
2013-06-24 19:34:00,76.0,67.0,30.14,SSE,164,0.0,1.0,75,0.00,,,0.02,,2013-06-24 23:34:00,
2013-06-24 19:45:00,76.0,67.0,30.14,SSE,164,0.0,1.0,75,0.00,,,0.02,,2013-06-24 23:45:00,
2013-06-24 20:05:00,74.0,66.0,30.15,SW,226,0.0,2.0,75,0.00,,,0.02,,2013-06-25 00:05:00,
2013-06-24 20:12:00,74.0,66.0,30.15,SW,226,0.0,2.0,75,0.00,,,0.02,,2013-06-25 00:12:00,
2013-06-24 20:24:00,74.0,64.0,30.15,WNW,296,2.0,11.0,70,0.00,,,0.02,,2013-06-25 00:24:00,
2013-06-24 20:47:00,73.0,63.0,30.15,NW,306,0.0,4.0,72,0.00,,,0.02,,2013-06-25 00:47:00,
2013-06-24 20:56:00,73.0,65.0,30.16,NNW,327,0.0,3.0,75,0.00,,,0.02,,2013-06-25 00:56:00,
2013-06-24 21:04:00,71.0,64.0,30.16,NW,326,0.0,2.0,79,0.00,,,0.02,,2013-06-25 01:04:00,
2013-06-24 21:24:00,71.0,64.0,30.16,South,182,0.0,4.0,78,0.00,,,0.02,,2013-06-25 01:24:00,
2013-06-24 21:44:00,70.0,64.0,30.17,South,182,0.0,1.0,80,0.00,,,0.02,,2013-06-25 01:44:00,
2013-06-24 22:16:00,70.0,64.0,30.17,SSE,148,0.0,4.0,81,0.00,,,0.02,,2013-06-25 02:16:00,
2013-06-24 22:36:00,69.0,63.0,30.17,WSW,255,0.0,2.0,81,0.00,,,0.02,,2013-06-25 02:36:00,
2013-06-24 22:45:00,69.0,63.0,30.18,SSE,152,0.0,3.0,82,0.00,,,0.02,,2013-06-25 02:45:00,
2013-06-24 22:58:00,69.0,64.0,30.19,SSE,152,0.0,1.0,84,0.00,,,0.02,,2013-06-25 02:58:00,
2013-06-24 23:53:00,68.0,64.0,30.20,SSE,153,0.0,0.0,87,0.00,,,0.01,,2013-06-25 03:53:00,